DLH0712 EDDF-LOWI
Flight info
| Callsign | DLH0712 |
|---|---|
| Flight time | 0h 53m |
| Altitude | 29000 |
| Route | SULUS7S/18 SULUS Z650 NIKUS M736 RDG/N0457F280 M736 DOSEL/N0449F270 M736 TULSI TULSI3A |
| Aircraft | A320/M-SDE3FGHIRWY/LB1 |
Departure
| Time | 2026-05-04 20:22 |
|---|---|
| Airport | Frankfurt Main Airport (EDDF) |
Arrival
| Time | 2026-05-04 21:16 |
|---|---|
| Airport | Innsbruck Airport (LOWI) |
| Time | Latitude | Longitude | Altitude | Speed | Heading |
|---|---|---|---|---|---|
| 2026-05-04 19:51 | 50.04606 | 8.56776 | 364 ft | 0 kts | 294° |
| 2026-05-04 20:05 | 50.04601 | 8.56795 | 365 ft | 0 kts | 293° |
| 2026-05-04 20:05 | 50.04606 | 8.56776 | 329 ft | 0 kts | 294° |
| 2026-05-04 20:09 | 50.04591 | 8.56831 | 365 ft | 4 kts | 296° |
| 2026-05-04 20:09 | 50.04583 | 8.56862 | 364 ft | 4 kts | 270° |
| 2026-05-04 20:10 | 50.04591 | 8.56895 | 366 ft | 4 kts | 217° |
| 2026-05-04 20:10 | 50.04615 | 8.56914 | 365 ft | 4 kts | 195° |
| 2026-05-04 20:10 | 50.04639 | 8.56925 | 360 ft | 4 kts | 205° |
| 2026-05-04 20:10 | 50.04649 | 8.56932 | 359 ft | 0 kts | 206° |
| 2026-05-04 20:15 | 50.04633 | 8.56922 | 362 ft | 8 kts | 199° |
| 2026-05-04 20:15 | 50.04546 | 8.56888 | 359 ft | 14 kts | 194° |
| 2026-05-04 20:16 | 50.04462 | 8.56839 | 363 ft | 13 kts | 222° |
| 2026-05-04 20:16 | 50.04424 | 8.56712 | 362 ft | 14 kts | 249° |
| 2026-05-04 20:16 | 50.04387 | 8.56557 | 358 ft | 16 kts | 250° |
| 2026-05-04 20:16 | 50.04344 | 8.56378 | 358 ft | 19 kts | 250° |
| 2026-05-04 20:17 | 50.04297 | 8.56177 | 360 ft | 21 kts | 249° |
| 2026-05-04 20:17 | 50.04243 | 8.55956 | 356 ft | 23 kts | 249° |
| 2026-05-04 20:17 | 50.04185 | 8.55714 | 358 ft | 25 kts | 250° |
| 2026-05-04 20:17 | 50.04123 | 8.55451 | 360 ft | 26 kts | 250° |
| 2026-05-04 20:18 | 50.04059 | 8.55183 | 355 ft | 26 kts | 250° |
| 2026-05-04 20:18 | 50.03994 | 8.54911 | 357 ft | 28 kts | 249° |
| 2026-05-04 20:18 | 50.03924 | 8.54620 | 350 ft | 29 kts | 250° |
| 2026-05-04 20:18 | 50.03844 | 8.54331 | 348 ft | 28 kts | 235° |
| 2026-05-04 20:19 | 50.03763 | 8.54066 | 352 ft | 26 kts | 249° |
| 2026-05-04 20:19 | 50.03699 | 8.53797 | 345 ft | 27 kts | 250° |
| 2026-05-04 20:19 | 50.03630 | 8.53516 | 339 ft | 29 kts | 248° |
| 2026-05-04 20:19 | 50.03558 | 8.53226 | 338 ft | 27 kts | 250° |
| 2026-05-04 20:20 | 50.03490 | 8.52942 | 334 ft | 28 kts | 249° |
| 2026-05-04 20:20 | 50.03425 | 8.52699 | 333 ft | 18 kts | 249° |
| 2026-05-04 20:20 | 50.03337 | 8.52594 | 335 ft | 5 kts | 180° |
| 2026-05-04 20:20 | 50.03333 | 8.52594 | 335 ft | 0 kts | 180° |
| 2026-05-04 20:21 | 50.02580 | 8.52600 | 335 ft | 120 kts | 179° |
| 2026-05-04 20:22 | 50.01575 | 8.52606 | 337 ft | 170 kts | 180° |
| 2026-05-04 20:22 | 50.00388 | 8.52619 | 735 ft | 177 kts | 181° |
| 2026-05-04 20:22 | 49.99094 | 8.52632 | 1277 ft | 184 kts | 178° |
| 2026-05-04 20:22 | 49.97813 | 8.52887 | 1818 ft | 191 kts | 165° |
| 2026-05-04 20:23 | 49.96541 | 8.53659 | 2306 ft | 205 kts | 150° |
| 2026-05-04 20:23 | 49.95345 | 8.54985 | 2829 ft | 219 kts | 137° |
| 2026-05-04 20:23 | 49.94351 | 8.56891 | 3284 ft | 240 kts | 120° |
| 2026-05-04 20:23 | 49.93575 | 8.59331 | 3756 ft | 261 kts | 114° |
| 2026-05-04 20:24 | 49.92848 | 8.61957 | 4598 ft | 266 kts | 114° |
| 2026-05-04 20:24 | 49.92093 | 8.64592 | 5452 ft | 269 kts | 116° |
| 2026-05-04 20:24 | 49.91283 | 8.67222 | 6348 ft | 272 kts | 119° |
| 2026-05-04 20:24 | 49.90418 | 8.69850 | 7160 ft | 276 kts | 120° |
| 2026-05-04 20:25 | 49.89503 | 8.72501 | 8016 ft | 279 kts | 122° |
| 2026-05-04 20:25 | 49.88562 | 8.75153 | 8837 ft | 283 kts | 122° |
| 2026-05-04 20:25 | 49.87587 | 8.77857 | 9662 ft | 287 kts | 123° |
| 2026-05-04 20:25 | 49.86607 | 8.80556 | 10278 ft | 298 kts | 123° |
| 2026-05-04 20:26 | 49.85543 | 8.83467 | 10514 ft | 322 kts | 122° |
| 2026-05-04 20:26 | 49.84396 | 8.86603 | 10700 ft | 345 kts | 122° |
| 2026-05-04 20:26 | 49.83185 | 8.89930 | 11027 ft | 361 kts | 122° |
| 2026-05-04 20:26 | 49.81950 | 8.93347 | 11629 ft | 367 kts | 122° |
| 2026-05-04 20:27 | 49.80698 | 8.96820 | 12292 ft | 372 kts | 122° |
| 2026-05-04 20:27 | 49.79414 | 9.00360 | 12976 ft | 376 kts | 122° |
| 2026-05-04 20:27 | 49.78117 | 9.03927 | 13655 ft | 380 kts | 122° |
| 2026-05-04 20:27 | 49.76848 | 9.07478 | 14242 ft | 384 kts | 118° |
| 2026-05-04 20:28 | 49.75862 | 9.11402 | 14866 ft | 390 kts | 108° |
| 2026-05-04 20:28 | 49.75202 | 9.15488 | 15465 ft | 394 kts | 106° |
| 2026-05-04 20:28 | 49.74545 | 9.19623 | 16041 ft | 398 kts | 106° |
| 2026-05-04 20:28 | 49.73876 | 9.23796 | 16626 ft | 401 kts | 106° |
| 2026-05-04 20:29 | 49.73198 | 9.27993 | 17227 ft | 405 kts | 107° |
| 2026-05-04 20:29 | 49.72509 | 9.32229 | 17802 ft | 408 kts | 107° |
| 2026-05-04 20:29 | 49.71813 | 9.36489 | 18371 ft | 412 kts | 107° |
| 2026-05-04 20:29 | 49.71103 | 9.40805 | 18860 ft | 415 kts | 107° |
| 2026-05-04 20:30 | 49.70390 | 9.45136 | 19338 ft | 419 kts | 107° |
| 2026-05-04 20:30 | 49.69669 | 9.49517 | 19795 ft | 422 kts | 107° |
| 2026-05-04 20:30 | 49.68941 | 9.53924 | 20245 ft | 425 kts | 107° |
| 2026-05-04 20:30 | 49.68203 | 9.58380 | 20703 ft | 429 kts | 107° |
| 2026-05-04 20:31 | 49.67594 | 9.62915 | 21130 ft | 434 kts | 99° |
| 2026-05-04 20:31 | 49.67456 | 9.67594 | 21553 ft | 441 kts | 90° |
| 2026-05-04 20:31 | 49.67831 | 9.72306 | 21969 ft | 447 kts | 79° |
| 2026-05-04 20:31 | 49.68746 | 9.77001 | 22383 ft | 452 kts | 71° |
| 2026-05-04 20:32 | 49.69754 | 9.81608 | 22785 ft | 454 kts | 75° |
| 2026-05-04 20:32 | 49.70592 | 9.86298 | 23091 ft | 456 kts | 77° |
| 2026-05-04 20:32 | 49.71097 | 9.89464 | 23335 ft | 458 kts | 77° |
| 2026-05-04 20:32 | 49.72042 | 9.94139 | 23547 ft | 451 kts | 69° |
| 2026-05-04 20:33 | 49.73452 | 9.98496 | 23653 ft | 460 kts | 58° |
| 2026-05-04 20:33 | 49.75333 | 10.02620 | 23946 ft | 464 kts | 54° |
| 2026-05-04 20:33 | 49.77227 | 10.06627 | 24246 ft | 467 kts | 54° |
| 2026-05-04 20:33 | 49.79134 | 10.10664 | 24544 ft | 469 kts | 54° |
| 2026-05-04 20:34 | 49.81057 | 10.14767 | 24847 ft | 472 kts | 54° |
| 2026-05-04 20:34 | 49.82974 | 10.18902 | 25150 ft | 474 kts | 55° |
| 2026-05-04 20:34 | 49.84891 | 10.23068 | 25435 ft | 476 kts | 55° |
| 2026-05-04 20:34 | 49.86814 | 10.27267 | 25727 ft | 478 kts | 56° |
| 2026-05-04 20:35 | 49.88463 | 10.31714 | 26008 ft | 478 kts | 69° |
| 2026-05-04 20:35 | 49.89352 | 10.36666 | 26273 ft | 476 kts | 84° |
| 2026-05-04 20:35 | 49.89407 | 10.41766 | 26529 ft | 473 kts | 99° |
| 2026-05-04 20:35 | 49.88638 | 10.46678 | 26785 ft | 469 kts | 114° |
| 2026-05-04 20:36 | 49.87451 | 10.51405 | 27009 ft | 470 kts | 115° |
| 2026-05-04 20:36 | 49.86246 | 10.56125 | 27250 ft | 472 kts | 115° |
| 2026-05-04 20:36 | 49.85031 | 10.60855 | 27468 ft | 474 kts | 115° |
| 2026-05-04 20:36 | 49.83792 | 10.65659 | 27711 ft | 475 kts | 115° |
| 2026-05-04 20:37 | 49.82565 | 10.70422 | 28017 ft | 475 kts | 115° |
| 2026-05-04 20:37 | 49.81365 | 10.75099 | 28331 ft | 474 kts | 115° |
| 2026-05-04 20:37 | 49.80149 | 10.79839 | 28657 ft | 473 kts | 115° |
| 2026-05-04 20:37 | 49.78933 | 10.84579 | 28899 ft | 473 kts | 115° |
| 2026-05-04 20:38 | 49.76504 | 10.94027 | 28944 ft | 473 kts | 115° |
| 2026-05-04 20:38 | 49.74060 | 11.03469 | 28949 ft | 473 kts | 115° |
| 2026-05-04 20:39 | 49.71595 | 11.12905 | 28947 ft | 473 kts | 115° |
| 2026-05-04 20:39 | 49.69128 | 11.22321 | 28944 ft | 473 kts | 115° |
| 2026-05-04 20:40 | 49.66658 | 11.31736 | 28932 ft | 473 kts | 115° |
| 2026-05-04 20:40 | 49.64183 | 11.41123 | 28924 ft | 473 kts | 115° |
| 2026-05-04 20:41 | 49.61697 | 11.50509 | 28928 ft | 472 kts | 115° |
| 2026-05-04 20:41 | 49.59209 | 11.59876 | 28951 ft | 472 kts | 115° |
| 2026-05-04 20:42 | 49.56719 | 11.69215 | 28968 ft | 471 kts | 115° |
| 2026-05-04 20:42 | 49.54219 | 11.78536 | 28960 ft | 470 kts | 115° |
| 2026-05-04 20:43 | 49.51713 | 11.87837 | 28963 ft | 470 kts | 115° |
| 2026-05-04 20:43 | 49.49204 | 11.97119 | 28961 ft | 470 kts | 115° |
| 2026-05-04 20:44 | 49.46685 | 12.06394 | 28957 ft | 470 kts | 115° |
| 2026-05-04 20:44 | 49.44157 | 12.15665 | 28939 ft | 470 kts | 115° |
| 2026-05-04 20:45 | 49.41632 | 12.24920 | 28926 ft | 470 kts | 115° |
| 2026-05-04 20:45 | 49.39095 | 12.34182 | 28923 ft | 470 kts | 115° |
| 2026-05-04 20:46 | 49.36262 | 12.43172 | 28924 ft | 467 kts | 127° |
| 2026-05-04 20:46 | 49.34169 | 12.46943 | 28925 ft | 463 kts | 139° |
| 2026-05-04 20:46 | 49.31643 | 12.49945 | 28924 ft | 459 kts | 151° |
| 2026-05-04 20:47 | 49.28790 | 12.52081 | 28905 ft | 455 kts | 162° |
| 2026-05-04 20:47 | 49.25744 | 12.53295 | 28900 ft | 451 kts | 173° |
| 2026-05-04 20:47 | 49.19502 | 12.53425 | 28903 ft | 449 kts | 184° |
| 2026-05-04 20:48 | 49.13259 | 12.53114 | 28911 ft | 449 kts | 184° |
| 2026-05-04 20:48 | 49.07006 | 12.52809 | 28908 ft | 450 kts | 184° |
| 2026-05-04 20:49 | 49.00748 | 12.52473 | 28903 ft | 450 kts | 184° |
| 2026-05-04 20:49 | 48.94495 | 12.51984 | 28904 ft | 450 kts | 185° |
| 2026-05-04 20:50 | 48.88240 | 12.51447 | 28909 ft | 451 kts | 185° |
| 2026-05-04 20:50 | 48.81971 | 12.50945 | 28905 ft | 451 kts | 184° |
| 2026-05-04 20:51 | 48.75664 | 12.50476 | 28904 ft | 451 kts | 184° |
| 2026-05-04 20:51 | 48.69390 | 12.50014 | 28904 ft | 451 kts | 184° |
| 2026-05-04 20:52 | 48.63131 | 12.49539 | 28903 ft | 451 kts | 184° |
| 2026-05-04 20:52 | 48.56896 | 12.49062 | 28893 ft | 451 kts | 184° |
| 2026-05-04 20:53 | 48.50628 | 12.48591 | 28890 ft | 451 kts | 184° |
| 2026-05-04 20:53 | 48.44518 | 12.46763 | 28892 ft | 448 kts | 202° |
| 2026-05-04 20:54 | 48.39168 | 12.42102 | 28891 ft | 446 kts | 220° |
| 2026-05-04 20:54 | 48.34439 | 12.36051 | 28888 ft | 446 kts | 220° |
| 2026-05-04 20:55 | 48.32085 | 12.33049 | 28326 ft | 443 kts | 220° |
| 2026-05-04 20:55 | 48.29727 | 12.30049 | 27158 ft | 445 kts | 220° |
| 2026-05-04 20:55 | 48.27333 | 12.27009 | 25982 ft | 449 kts | 220° |
| 2026-05-04 20:55 | 48.24954 | 12.23995 | 24834 ft | 451 kts | 220° |
| 2026-05-04 20:56 | 48.22553 | 12.20958 | 23716 ft | 454 kts | 220° |
| 2026-05-04 20:56 | 48.20155 | 12.17924 | 22834 ft | 448 kts | 220° |
| 2026-05-04 20:56 | 48.17788 | 12.14935 | 21985 ft | 442 kts | 220° |
| 2026-05-04 20:56 | 48.15449 | 12.11986 | 21189 ft | 437 kts | 220° |
| 2026-05-04 20:57 | 48.13138 | 12.09074 | 20427 ft | 433 kts | 220° |
| 2026-05-04 20:57 | 48.10843 | 12.06180 | 20055 ft | 431 kts | 220° |
| 2026-05-04 20:57 | 48.08545 | 12.03279 | 19891 ft | 431 kts | 220° |
| 2026-05-04 20:57 | 48.06280 | 12.00426 | 19770 ft | 430 kts | 220° |
| 2026-05-04 20:58 | 48.03990 | 11.97556 | 19504 ft | 418 kts | 220° |
| 2026-05-04 20:58 | 48.01798 | 11.94818 | 19234 ft | 404 kts | 220° |
| 2026-05-04 20:58 | 47.99673 | 11.92165 | 18972 ft | 392 kts | 220° |
| 2026-05-04 20:58 | 47.97617 | 11.89600 | 18801 ft | 378 kts | 220° |
| 2026-05-04 20:59 | 47.95617 | 11.87108 | 18458 ft | 371 kts | 220° |
| 2026-05-04 20:59 | 47.93640 | 11.84670 | 17877 ft | 370 kts | 217° |
| 2026-05-04 20:59 | 47.91487 | 11.82580 | 17274 ft | 369 kts | 209° |
| 2026-05-04 20:59 | 47.89147 | 11.81026 | 16673 ft | 369 kts | 200° |
| 2026-05-04 21:00 | 47.86669 | 11.80048 | 16084 ft | 368 kts | 191° |
| 2026-05-04 21:00 | 47.84131 | 11.79671 | 15687 ft | 364 kts | 183° |
| 2026-05-04 21:00 | 47.81596 | 11.79537 | 15334 ft | 356 kts | 183° |
| 2026-05-04 21:00 | 47.79136 | 11.79399 | 14990 ft | 350 kts | 183° |
| 2026-05-04 21:01 | 47.76725 | 11.79262 | 14655 ft | 344 kts | 183° |
| 2026-05-04 21:01 | 47.74356 | 11.79125 | 14321 ft | 338 kts | 183° |
| 2026-05-04 21:01 | 47.72024 | 11.79059 | 13988 ft | 333 kts | 178° |
| 2026-05-04 21:01 | 47.69743 | 11.79451 | 13657 ft | 328 kts | 170° |
| 2026-05-04 21:02 | 47.67576 | 11.80335 | 13285 ft | 322 kts | 161° |
| 2026-05-04 21:02 | 47.65484 | 11.81515 | 12918 ft | 317 kts | 160° |
| 2026-05-04 21:02 | 47.63472 | 11.82652 | 12532 ft | 308 kts | 160° |
| 2026-05-04 21:02 | 47.61463 | 11.83777 | 12174 ft | 303 kts | 161° |
| 2026-05-04 21:03 | 47.59534 | 11.84856 | 11821 ft | 291 kts | 162° |
| 2026-05-04 21:03 | 47.57674 | 11.85893 | 11467 ft | 280 kts | 162° |
| 2026-05-04 21:03 | 47.55888 | 11.86888 | 11112 ft | 269 kts | 162° |
| 2026-05-04 21:03 | 47.54192 | 11.87832 | 10782 ft | 259 kts | 163° |
| 2026-05-04 21:04 | 47.52545 | 11.88749 | 10574 ft | 247 kts | 163° |
| 2026-05-04 21:04 | 47.50930 | 11.89650 | 10321 ft | 241 kts | 163° |
| 2026-05-04 21:04 | 47.49361 | 11.90526 | 10062 ft | 240 kts | 163° |
| 2026-05-04 21:04 | 47.47827 | 11.91381 | 9795 ft | 231 kts | 164° |
| 2026-05-04 21:05 | 47.46352 | 11.92203 | 9506 ft | 222 kts | 164° |
| 2026-05-04 21:05 | 47.44931 | 11.92995 | 9219 ft | 216 kts | 164° |
| 2026-05-04 21:05 | 47.43530 | 11.93775 | 8935 ft | 214 kts | 164° |
| 2026-05-04 21:05 | 47.42131 | 11.94471 | 8672 ft | 207 kts | 176° |
| 2026-05-04 21:06 | 47.40837 | 11.94044 | 8416 ft | 189 kts | 220° |
| 2026-05-04 21:06 | 47.40074 | 11.92538 | 8132 ft | 181 kts | 242° |
| 2026-05-04 21:06 | 47.39561 | 11.90874 | 7860 ft | 176 kts | 245° |
| 2026-05-04 21:06 | 47.39106 | 11.89242 | 7609 ft | 167 kts | 244° |
| 2026-05-04 21:07 | 47.38667 | 11.87682 | 7418 ft | 164 kts | 244° |
| 2026-05-04 21:07 | 47.38212 | 11.86105 | 7229 ft | 171 kts | 244° |
| 2026-05-04 21:07 | 47.37735 | 11.84486 | 7033 ft | 172 kts | 243° |
| 2026-05-04 21:07 | 47.37252 | 11.82872 | 6828 ft | 173 kts | 242° |
| 2026-05-04 21:08 | 47.36761 | 11.81253 | 6645 ft | 171 kts | 242° |
| 2026-05-04 21:08 | 47.36268 | 11.79643 | 6439 ft | 173 kts | 245° |
| 2026-05-04 21:08 | 47.35768 | 11.78026 | 6260 ft | 173 kts | 244° |
| 2026-05-04 21:08 | 47.35269 | 11.76419 | 6044 ft | 172 kts | 242° |
| 2026-05-04 21:09 | 47.34761 | 11.74789 | 5882 ft | 178 kts | 244° |
| 2026-05-04 21:09 | 47.34241 | 11.73135 | 5681 ft | 179 kts | 243° |
| 2026-05-04 21:09 | 47.33719 | 11.71477 | 5497 ft | 178 kts | 243° |
| 2026-05-04 21:09 | 47.33203 | 11.69832 | 5291 ft | 177 kts | 244° |
| 2026-05-04 21:10 | 47.32689 | 11.68195 | 5089 ft | 174 kts | 243° |
| 2026-05-04 21:10 | 47.32185 | 11.66596 | 4879 ft | 169 kts | 243° |
| 2026-05-04 21:10 | 47.31699 | 11.65055 | 4679 ft | 163 kts | 243° |
| 2026-05-04 21:10 | 47.31387 | 11.64067 | 4552 ft | 159 kts | 243° |
| 2026-05-04 21:11 | 47.30919 | 11.62589 | 4345 ft | 156 kts | 244° |
| 2026-05-04 21:11 | 47.30466 | 11.61159 | 4161 ft | 151 kts | 243° |
| 2026-05-04 21:11 | 47.30029 | 11.59789 | 3972 ft | 150 kts | 243° |
| 2026-05-04 21:11 | 47.29588 | 11.58402 | 3777 ft | 145 kts | 244° |
| 2026-05-04 21:12 | 47.29161 | 11.57047 | 3603 ft | 144 kts | 243° |
| 2026-05-04 21:12 | 47.28736 | 11.55704 | 3530 ft | 144 kts | 244° |
| 2026-05-04 21:12 | 47.28366 | 11.54323 | 3390 ft | 146 kts | 249° |
| 2026-05-04 21:12 | 47.28081 | 11.52908 | 3200 ft | 145 kts | 254° |
| 2026-05-04 21:13 | 47.27876 | 11.51456 | 3168 ft | 146 kts | 257° |
| 2026-05-04 21:13 | 47.27723 | 11.49977 | 3036 ft | 145 kts | 259° |
| 2026-05-04 21:13 | 47.27581 | 11.48506 | 2915 ft | 145 kts | 258° |
| 2026-05-04 21:13 | 47.27409 | 11.47048 | 2923 ft | 146 kts | 259° |
| 2026-05-04 21:14 | 47.27236 | 11.45581 | 2921 ft | 145 kts | 259° |
| 2026-05-04 21:14 | 47.27076 | 11.44123 | 2866 ft | 143 kts | 259° |
| 2026-05-04 21:14 | 47.26924 | 11.42670 | 2865 ft | 144 kts | 258° |
| 2026-05-04 21:14 | 47.26734 | 11.41214 | 2740 ft | 146 kts | 258° |
| 2026-05-04 21:15 | 47.26591 | 11.39641 | 2492 ft | 151 kts | 259° |
| 2026-05-04 21:15 | 47.26357 | 11.38129 | 2302 ft | 149 kts | 263° |
| 2026-05-04 21:15 | 47.26254 | 11.36610 | 2053 ft | 148 kts | 260° |
| 2026-05-04 21:15 | 47.26108 | 11.35114 | 1920 ft | 144 kts | 257° |
| 2026-05-04 21:16 | 47.25971 | 11.33962 | 1904 ft | 53 kts | 262° |
| 2026-05-04 21:16 | 47.25939 | 11.33714 | 1902 ft | 17 kts | 232° |
| 2026-05-04 21:16 | 47.25868 | 11.33760 | 1897 ft | 11 kts | 126° |
| 2026-05-04 21:16 | 47.25826 | 11.33845 | 1904 ft | 7 kts | 126° |
| 2026-05-04 21:17 | 47.25783 | 11.33940 | 1897 ft | 15 kts | 113° |
| 2026-05-04 21:17 | 47.25775 | 11.34102 | 1904 ft | 20 kts | 77° |
| 2026-05-04 21:17 | 47.25801 | 11.34352 | 1904 ft | 29 kts | 82° |
| 2026-05-04 21:17 | 47.25834 | 11.34642 | 1901 ft | 26 kts | 81° |
| 2026-05-04 21:18 | 47.25863 | 11.34912 | 1904 ft | 28 kts | 81° |
| 2026-05-04 21:18 | 47.25879 | 11.35051 | 1901 ft | 14 kts | 80° |
| 2026-05-04 21:18 | 47.25890 | 11.35176 | 1904 ft | 3 kts | 83° |
| 2026-05-04 21:18 | 47.25896 | 11.35235 | 1899 ft | 11 kts | 81° |
| 2026-05-04 21:19 | 47.25872 | 11.35290 | 1901 ft | 2 kts | 159° |
| 2026-05-04 21:19 | 47.25848 | 11.35290 | 1904 ft | 1 kts | 170° |
| 2026-05-04 21:19 | 47.25846 | 11.35291 | 1904 ft | 0 kts | 169° |
| 2026-05-04 21:19 | 47.25843 | 11.35291 | 1904 ft | 0 kts | 169° |